UAE355 WSSS-OMDB
Flight info
| Callsign | UAE355 |
|---|---|
| Flight time | N/A |
| Altitude | 34000 |
| Route | AROSO5B AROSO Y513 KALIL Y504 GUNIP N571 IDASO/N0486F360 N571 PARAR/N0479F380 N571 VUSET A454 PASOV B540 KUPMA/N0416F240 B540 MIVEK P574 IMPED |
| Aircraft | B77W/H-SDE1E2E3FGHIJ2J3J4J5M1RWXY/LB1D1 |
Departure
| Time | N/A |
|---|---|
| Airport | Singapore Changi Airport (WSSS) |
Arrival
| Time | 2026-04-21 21:54 |
|---|---|
| Airport | Dubai International Airport (OMDB) |
| Time | Latitude | Longitude | Altitude | Speed | Heading |
|---|---|---|---|---|---|
| 2026-04-21 21:28 | 24.42248 | 57.56910 | 33775 ft | 447 kts | 288° |
| 2026-04-21 21:29 | 24.43247 | 57.53676 | 33772 ft | 444 kts | 288° |
| 2026-04-21 21:29 | 24.45229 | 57.47255 | 33774 ft | 446 kts | 288° |
| 2026-04-21 21:30 | 24.47216 | 57.40812 | 33775 ft | 446 kts | 288° |
| 2026-04-21 21:30 | 24.49187 | 57.34405 | 33771 ft | 444 kts | 288° |
| 2026-04-21 21:31 | 24.51153 | 57.28005 | 33281 ft | 440 kts | 287° |
| 2026-04-21 21:31 | 24.52136 | 57.24801 | 32471 ft | 442 kts | 287° |
| 2026-04-21 21:31 | 24.53109 | 57.21626 | 31675 ft | 443 kts | 287° |
| 2026-04-21 21:31 | 24.54082 | 57.18447 | 30898 ft | 444 kts | 287° |
| 2026-04-21 21:32 | 24.55066 | 57.15231 | 30313 ft | 440 kts | 287° |
| 2026-04-21 21:32 | 24.56027 | 57.12090 | 29898 ft | 440 kts | 287° |
| 2026-04-21 21:32 | 24.57026 | 57.08818 | 29409 ft | 456 kts | 287° |
| 2026-04-21 21:32 | 24.58029 | 57.05531 | 28882 ft | 457 kts | 287° |
| 2026-04-21 21:33 | 24.59034 | 57.02235 | 28358 ft | 452 kts | 287° |
| 2026-04-21 21:33 | 24.60015 | 56.99019 | 27836 ft | 447 kts | 287° |
| 2026-04-21 21:33 | 24.61000 | 56.95785 | 27294 ft | 442 kts | 287° |
| 2026-04-21 21:33 | 24.61964 | 56.92616 | 26772 ft | 437 kts | 287° |
| 2026-04-21 21:34 | 24.62921 | 56.89466 | 26232 ft | 432 kts | 287° |
| 2026-04-21 21:34 | 24.63862 | 56.86375 | 25695 ft | 428 kts | 288° |
| 2026-04-21 21:34 | 24.65048 | 56.83395 | 25161 ft | 425 kts | 296° |
| 2026-04-21 21:34 | 24.66537 | 56.80609 | 24623 ft | 421 kts | 298° |
| 2026-04-21 21:35 | 24.68029 | 56.77909 | 24087 ft | 416 kts | 299° |
| 2026-04-21 21:35 | 24.69535 | 56.75186 | 23538 ft | 411 kts | 298° |
| 2026-04-21 21:35 | 24.71014 | 56.72509 | 23000 ft | 406 kts | 298° |
| 2026-04-21 21:35 | 24.72452 | 56.69906 | 22783 ft | 394 kts | 298° |
| 2026-04-21 21:36 | 24.73873 | 56.67328 | 22780 ft | 397 kts | 298° |
| 2026-04-21 21:36 | 24.75290 | 56.64758 | 22707 ft | 392 kts | 298° |
| 2026-04-21 21:36 | 24.76695 | 56.62207 | 22188 ft | 389 kts | 298° |
| 2026-04-21 21:36 | 24.78085 | 56.59681 | 21473 ft | 390 kts | 298° |
| 2026-04-21 21:37 | 24.79487 | 56.57130 | 20808 ft | 389 kts | 299° |
| 2026-04-21 21:37 | 24.80879 | 56.54599 | 20259 ft | 386 kts | 299° |
| 2026-04-21 21:37 | 24.82257 | 56.52091 | 19730 ft | 382 kts | 299° |
| 2026-04-21 21:37 | 24.83634 | 56.49583 | 19178 ft | 380 kts | 299° |
| 2026-04-21 21:38 | 24.84979 | 56.47133 | 18639 ft | 377 kts | 299° |
| 2026-04-21 21:38 | 24.86325 | 56.44680 | 18093 ft | 374 kts | 300° |
| 2026-04-21 21:38 | 24.87529 | 56.42160 | 17542 ft | 369 kts | 291° |
| 2026-04-21 21:38 | 24.88272 | 56.39503 | 16976 ft | 366 kts | 281° |
| 2026-04-21 21:39 | 24.88543 | 56.36729 | 16420 ft | 364 kts | 271° |
| 2026-04-21 21:39 | 24.88406 | 56.33970 | 15741 ft | 366 kts | 265° |
| 2026-04-21 21:39 | 24.88190 | 56.31139 | 14824 ft | 374 kts | 265° |
| 2026-04-21 21:39 | 24.88022 | 56.28273 | 14159 ft | 374 kts | 269° |
| 2026-04-21 21:40 | 24.88318 | 56.25470 | 13630 ft | 371 kts | 283° |
| 2026-04-21 21:40 | 24.89211 | 56.22809 | 13109 ft | 369 kts | 295° |
| 2026-04-21 21:40 | 24.90408 | 56.20370 | 12659 ft | 364 kts | 297° |
| 2026-04-21 21:40 | 24.91624 | 56.17994 | 12616 ft | 346 kts | 297° |
| 2026-04-21 21:41 | 24.92784 | 56.15732 | 12584 ft | 330 kts | 297° |
| 2026-04-21 21:41 | 24.93891 | 56.13574 | 12552 ft | 315 kts | 297° |
| 2026-04-21 21:41 | 24.94938 | 56.11534 | 12514 ft | 300 kts | 297° |
| 2026-04-21 21:41 | 24.95948 | 56.09566 | 12479 ft | 287 kts | 297° |
| 2026-04-21 21:42 | 24.96906 | 56.07703 | 12287 ft | 281 kts | 298° |
| 2026-04-21 21:42 | 24.98051 | 56.05969 | 11944 ft | 282 kts | 308° |
| 2026-04-21 21:42 | 24.99357 | 56.04356 | 11569 ft | 282 kts | 310° |
| 2026-04-21 21:42 | 25.00679 | 56.02755 | 11257 ft | 280 kts | 310° |
| 2026-04-21 21:43 | 25.01994 | 56.01156 | 10924 ft | 279 kts | 310° |
| 2026-04-21 21:43 | 25.03281 | 55.99583 | 10619 ft | 278 kts | 310° |
| 2026-04-21 21:43 | 25.04569 | 55.98008 | 10323 ft | 275 kts | 310° |
| 2026-04-21 21:43 | 25.05842 | 55.96450 | 9997 ft | 275 kts | 310° |
| 2026-04-21 21:44 | 25.07114 | 55.94892 | 9675 ft | 274 kts | 310° |
| 2026-04-21 21:44 | 25.08386 | 55.93331 | 9379 ft | 272 kts | 310° |
| 2026-04-21 21:44 | 25.09649 | 55.91782 | 9098 ft | 270 kts | 310° |
| 2026-04-21 21:44 | 25.10905 | 55.90241 | 8784 ft | 269 kts | 310° |
| 2026-04-21 21:45 | 25.12167 | 55.88691 | 8459 ft | 268 kts | 310° |
| 2026-04-21 21:45 | 25.13398 | 55.87180 | 8144 ft | 267 kts | 310° |
| 2026-04-21 21:45 | 25.14646 | 55.85646 | 7813 ft | 267 kts | 311° |
| 2026-04-21 21:45 | 25.15815 | 55.84078 | 7511 ft | 265 kts | 303° |
| 2026-04-21 21:46 | 25.16799 | 55.82371 | 7231 ft | 263 kts | 301° |
| 2026-04-21 21:46 | 25.17756 | 55.80642 | 6931 ft | 262 kts | 301° |
| 2026-04-21 21:46 | 25.18702 | 55.78939 | 6643 ft | 261 kts | 301° |
| 2026-04-21 21:46 | 25.19638 | 55.77208 | 6343 ft | 260 kts | 295° |
| 2026-04-21 21:47 | 25.20014 | 55.75276 | 5976 ft | 262 kts | 268° |
| 2026-04-21 21:47 | 25.19603 | 55.73303 | 5647 ft | 264 kts | 253° |
| 2026-04-21 21:47 | 25.19007 | 55.71407 | 5385 ft | 263 kts | 252° |
| 2026-04-21 21:47 | 25.18394 | 55.69498 | 5101 ft | 262 kts | 252° |
| 2026-04-21 21:48 | 25.17783 | 55.67613 | 4796 ft | 262 kts | 252° |
| 2026-04-21 21:48 | 25.17170 | 55.65721 | 4474 ft | 262 kts | 252° |
| 2026-04-21 21:48 | 25.16560 | 55.63833 | 4192 ft | 261 kts | 252° |
| 2026-04-21 21:48 | 25.15946 | 55.61948 | 3884 ft | 261 kts | 252° |
| 2026-04-21 21:49 | 25.15331 | 55.60057 | 3601 ft | 261 kts | 252° |
| 2026-04-21 21:49 | 25.14718 | 55.58185 | 3311 ft | 261 kts | 252° |
| 2026-04-21 21:49 | 25.14203 | 55.56279 | 3001 ft | 258 kts | 268° |
| 2026-04-21 21:49 | 25.14471 | 55.54404 | 2921 ft | 239 kts | 298° |
| 2026-04-21 21:50 | 25.15437 | 55.53088 | 2668 ft | 216 kts | 324° |
| 2026-04-21 21:50 | 25.16509 | 55.52031 | 2513 ft | 196 kts | 312° |
| 2026-04-21 21:50 | 25.17262 | 55.50840 | 2285 ft | 184 kts | 304° |
| 2026-04-21 21:50 | 25.17894 | 55.49680 | 2085 ft | 170 kts | 304° |
| 2026-04-21 21:51 | 25.18495 | 55.48599 | 1882 ft | 162 kts | 304° |
| 2026-04-21 21:51 | 25.19086 | 55.47545 | 1685 ft | 159 kts | 304° |
| 2026-04-21 21:51 | 25.19665 | 55.46508 | 1492 ft | 160 kts | 304° |
| 2026-04-21 21:51 | 25.20244 | 55.45468 | 1288 ft | 159 kts | 304° |
| 2026-04-21 21:52 | 25.20826 | 55.44427 | 1085 ft | 158 kts | 304° |
| 2026-04-21 21:52 | 25.21402 | 55.43394 | 882 ft | 158 kts | 304° |
| 2026-04-21 21:52 | 25.21973 | 55.42369 | 686 ft | 158 kts | 304° |
| 2026-04-21 21:52 | 25.22553 | 55.41333 | 484 ft | 157 kts | 304° |
| 2026-04-21 21:53 | 25.23133 | 55.40310 | 282 ft | 156 kts | 304° |
| 2026-04-21 21:53 | 25.23699 | 55.39294 | 78 ft | 156 kts | 304° |
| 2026-04-21 21:53 | 25.24184 | 55.38418 | 76 ft | 106 kts | 302° |
| 2026-04-21 21:53 | 25.24500 | 55.37852 | 76 ft | 78 kts | 301° |
| 2026-04-21 21:54 | 25.24765 | 55.37373 | 76 ft | 67 kts | 302° |
| 2026-04-21 21:54 | 25.24988 | 55.36958 | 76 ft | 58 kts | 290° |
| 2026-04-21 21:54 | 25.25022 | 55.36615 | 76 ft | 33 kts | 270° |
| 2026-04-21 21:54 | 25.25052 | 55.36388 | 76 ft | 26 kts | 293° |
| 2026-04-21 21:55 | 25.24993 | 55.36269 | 76 ft | 18 kts | 210° |
| 2026-04-21 21:55 | 25.24932 | 55.36229 | 76 ft | 4 kts | 211° |
| 2026-04-21 21:55 | 25.24922 | 55.36223 | 76 ft | 0 kts | 212° |